Time;durP1;ratioP1;P1;durP2;ratioP2;P2;SDS_P1;SDS_P2;PMS_P1;PMS_P2;Temp;Humidity;BMP_temperature;BMP_pressure;BME280_temperature;BME280_humidity;BME280_pressure;Samples;Min_cycle;Max_cycle;Signal;HPM_P1;HPM_P2
2020/12/08 00:01:47;;;;;;;;;;;20.10;35.70;;;;;;484081;246;1143;-69
2020/12/08 00:03:48;;;;;;;;;;;20.10;35.70;;;;;;484069;246;1205;-68
2020/12/08 00:05:49;;;;;;;;;;;20.10;35.60;;;;;;484069;246;1200;-68
2020/12/08 00:07:51;;;;;;;;;;;20.00;35.70;;;;;;484067;246;950;-68
2020/12/08 00:09:52;;;;;;;;;;;20.10;35.60;;;;;;484167;246;1027;-68
2020/12/08 00:11:53;;;;;;;;;;;20.10;35.60;;;;;;484071;246;2195;-68
2020/12/08 00:13:54;;;;;;;;;;;20.10;35.50;;;;;;484106;246;1292;-68
2020/12/08 00:15:56;;;;;;;;;;;20.00;35.50;;;;;;484059;246;1113;-68
2020/12/08 00:17:57;;;;;;;;;;;20.10;35.50;;;;;;484096;246;1073;-68
2020/12/08 00:19:58;;;;;;;;;;;20.10;35.40;;;;;;484071;246;1088;-68
2020/12/08 00:22:00;;;;;;;;;;;20.10;35.50;;;;;;484037;246;1188;-68
2020/12/08 00:24:01;;;;;;;;;;;20.10;35.40;;;;;;484140;246;1232;-68
2020/12/08 00:26:03;;;;;;;;;;;20.10;35.50;;;;;;484141;246;1184;-68
2020/12/08 00:28:04;;;;;;;;;;;20.00;35.40;;;;;;484156;246;1187;-68
2020/12/08 00:30:05;;;;;;;;;;;20.10;35.30;;;;;;484084;246;1134;-68
2020/12/08 00:32:06;;;;;;;;;;;20.20;35.20;;;;;;484052;246;2184;-68
2020/12/08 00:34:08;;;;;;;;;;;20.10;35.20;;;;;;484094;246;1121;-68
2020/12/08 00:36:09;;;;;;;;;;;20.10;35.20;;;;;;484063;246;1174;-68
2020/12/08 00:38:11;;;;;;;;;;;20.10;35.20;;;;;;484068;246;978;-69
2020/12/08 00:40:12;;;;;;;;;;;20.10;35.20;;;;;;484084;246;974;-68
2020/12/08 00:42:13;;;;;;;;;;;20.10;35.10;;;;;;484040;246;999;-68
2020/12/08 00:44:14;;;;;;;;;;;20.10;35.30;;;;;;484127;246;1179;-68
2020/12/08 00:46:16;;;;;;;;;;;20.10;35.30;;;;;;484141;246;963;-69
2020/12/08 00:48:17;;;;;;;;;;;20.10;35.30;;;;;;484160;246;975;-69
2020/12/08 00:50:18;;;;;;;;;;;20.10;35.30;;;;;;484121;246;970;-68
2020/12/08 00:52:20;;;;;;;;;;;20.00;35.40;;;;;;484097;246;2180;-69
2020/12/08 00:54:21;;;;;;;;;;;20.10;35.40;;;;;;484113;246;1051;-68
2020/12/08 00:56:22;;;;;;;;;;;20.10;35.30;;;;;;484125;246;965;-68
2020/12/08 00:58:23;;;;;;;;;;;20.10;35.30;;;;;;484088;246;1227;-68
2020/12/08 01:00:25;;;;;;;;;;;20.10;35.20;;;;;;484110;246;1102;-68
2020/12/08 01:02:26;;;;;;;;;;;20.10;35.40;;;;;;484114;246;1238;-68
2020/12/08 01:04:27;;;;;;;;;;;20.10;35.30;;;;;;484052;246;1179;-68
2020/12/08 01:06:28;;;;;;;;;;;20.10;35.30;;;;;;484073;246;1036;-68
2020/12/08 01:08:30;;;;;;;;;;;20.10;35.20;;;;;;484074;246;1167;-68
2020/12/08 01:10:34;;;;;;;;;;;20.10;35.30;;;;;;484079;246;1157;-69
2020/12/08 01:12:35;;;;;;;;;;;20.00;35.40;;;;;;484054;246;2184;-68
2020/12/08 01:14:37;;;;;;;;;;;20.00;35.40;;;;;;484134;246;1177;-68
2020/12/08 01:16:38;;;;;;;;;;;20.10;35.50;;;;;;484088;246;994;-69
2020/12/08 01:18:39;;;;;;;;;;;20.10;35.40;;;;;;484111;246;1073;-68
2020/12/08 01:20:41;;;;;;;;;;;20.00;35.50;;;;;;484136;246;1063;-68
2020/12/08 01:22:42;;;;;;;;;;;20.00;35.50;;;;;;484108;246;1012;-68
2020/12/08 01:24:43;;;;;;;;;;;20.00;35.20;;;;;;484129;246;1098;-68
2020/12/08 01:26:44;;;;;;;;;;;20.00;35.40;;;;;;484090;246;979;-68
2020/12/08 01:28:46;;;;;;;;;;;20.00;35.50;;;;;;484134;246;944;-68
2020/12/08 01:30:47;;;;;;;;;;;20.00;35.50;;;;;;484085;246;1176;-68
2020/12/08 01:32:48;;;;;;;;;;;20.10;35.40;;;;;;484085;246;2176;-68
2020/12/08 01:34:49;;;;;;;;;;;20.00;35.40;;;;;;484119;246;1040;-69
2020/12/08 01:36:51;;;;;;;;;;;20.00;35.40;;;;;;484028;246;1152;-68
2020/12/08 01:38:52;;;;;;;;;;;20.00;35.40;;;;;;484062;246;1024;-68
2020/12/08 01:40:53;;;;;;;;;;;20.10;35.40;;;;;;483997;246;1285;-68
2020/12/08 01:42:54;;;;;;;;;;;20.00;35.30;;;;;;484057;246;1090;-68
2020/12/08 01:44:56;;;;;;;;;;;19.90;35.40;;;;;;484166;246;1331;-68
2020/12/08 01:46:57;;;;;;;;;;;20.00;35.40;;;;;;484019;246;1133;-69
2020/12/08 01:48:58;;;;;;;;;;;20.00;35.30;;;;;;484065;246;1028;-69
2020/12/08 01:51:00;;;;;;;;;;;20.00;35.30;;;;;;484076;246;1123;-69
2020/12/08 01:53:01;;;;;;;;;;;20.00;35.30;;;;;;484118;246;2191;-68
2020/12/08 01:55:02;;;;;;;;;;;20.10;35.30;;;;;;484110;246;988;-68
2020/12/08 01:57:03;;;;;;;;;;;20.00;35.20;;;;;;484076;246;1109;-68
2020/12/08 01:59:05;;;;;;;;;;;20.00;35.20;;;;;;484064;246;1141;-68
2020/12/08 02:01:06;;;;;;;;;;;20.00;35.20;;;;;;484099;246;1187;-68
2020/12/08 02:03:07;;;;;;;;;;;20.00;35.20;;;;;;483925;246;2200;-68
2020/12/08 02:05:09;;;;;;;;;;;20.10;35.10;;;;;;484083;246;987;-68
2020/12/08 02:07:10;;;;;;;;;;;20.10;35.20;;;;;;484093;242;1212;-69
2020/12/08 02:09:11;;;;;;;;;;;20.00;35.10;;;;;;484135;246;1144;-68
2020/12/08 02:11:12;;;;;;;;;;;20.10;35.10;;;;;;484093;246;2188;-68
2020/12/08 02:13:14;;;;;;;;;;;20.00;35.20;;;;;;484046;246;1117;-68
2020/12/08 02:15:15;;;;;;;;;;;20.00;35.20;;;;;;484144;246;1101;-68
2020/12/08 02:17:16;;;;;;;;;;;20.00;35.30;;;;;;484024;246;1294;-68
2020/12/08 02:19:17;;;;;;;;;;;19.90;35.30;;;;;;484073;246;1150;-68
2020/12/08 02:21:19;;;;;;;;;;;20.00;35.30;;;;;;484184;246;1050;-68
2020/12/08 02:23:20;;;;;;;;;;;20.00;35.30;;;;;;484113;246;1106;-68
2020/12/08 02:25:21;;;;;;;;;;;20.00;35.20;;;;;;484052;246;1089;-68
2020/12/08 02:27:23;;;;;;;;;;;20.00;35.40;;;;;;484061;246;1152;-68
2020/12/08 02:29:24;;;;;;;;;;;20.10;35.30;;;;;;484092;246;1121;-68
2020/12/08 02:31:25;;;;;;;;;;;20.10;35.20;;;;;;484082;246;2191;-68
2020/12/08 02:33:26;;;;;;;;;;;20.10;35.30;;;;;;484134;246;1110;-68
2020/12/08 02:35:28;;;;;;;;;;;20.10;35.40;;;;;;484065;246;1186;-68
2020/12/08 02:37:29;;;;;;;;;;;20.10;35.30;;;;;;484154;246;1122;-68
2020/12/08 02:39:30;;;;;;;;;;;20.10;35.30;;;;;;484062;243;1136;-68
2020/12/08 02:41:32;;;;;;;;;;;20.10;35.30;;;;;;484086;246;1098;-68
2020/12/08 02:43:33;;;;;;;;;;;20.10;35.30;;;;;;484102;246;1062;-68
2020/12/08 02:45:34;;;;;;;;;;;20.10;35.30;;;;;;484111;246;1210;-68
2020/12/08 02:47:35;;;;;;;;;;;20.10;35.30;;;;;;484127;246;1044;-68
2020/12/08 02:49:37;;;;;;;;;;;20.10;35.20;;;;;;484147;246;1155;-68
2020/12/08 02:51:38;;;;;;;;;;;20.10;34.80;;;;;;484063;246;2206;-68
2020/12/08 02:53:39;;;;;;;;;;;20.10;35.10;;;;;;484099;246;969;-68
2020/12/08 02:55:40;;;;;;;;;;;20.10;35.40;;;;;;484044;246;1217;-68
2020/12/08 02:57:42;;;;;;;;;;;20.10;35.30;;;;;;484083;246;3170;-68
2020/12/08 02:59:43;;;;;;;;;;;20.10;35.40;;;;;;484095;246;1120;-68
2020/12/08 03:01:44;;;;;;;;;;;20.00;35.50;;;;;;484168;246;1153;-68
2020/12/08 03:03:46;;;;;;;;;;;20.10;35.40;;;;;;484135;246;1221;-68
2020/12/08 03:05:47;;;;;;;;;;;20.10;35.50;;;;;;484083;246;969;-69
2020/12/08 03:07:48;;;;;;;;;;;20.00;35.40;;;;;;484062;246;1114;-68
2020/12/08 03:09:49;;;;;;;;;;;20.00;35.40;;;;;;484060;246;1047;-69
2020/12/08 03:11:51;;;;;;;;;;;20.00;35.30;;;;;;484186;246;2204;-68
2020/12/08 03:13:52;;;;;;;;;;;20.00;35.50;;;;;;484107;246;965;-68
2020/12/08 03:15:53;;;;;;;;;;;19.90;35.50;;;;;;484088;246;1195;-68
2020/12/08 03:17:55;;;;;;;;;;;19.90;35.60;;;;;;484110;246;1064;-68
2020/12/08 03:19:56;;;;;;;;;;;19.90;35.60;;;;;;484100;246;1108;-69
2020/12/08 03:21:57;;;;;;;;;;;19.90;35.60;;;;;;484042;246;987;-68
2020/12/08 03:23:58;;;;;;;;;;;19.90;35.40;;;;;;484055;246;967;-68
2020/12/08 03:26:00;;;;;;;;;;;19.90;35.50;;;;;;484081;246;1114;-68
2020/12/08 03:28:01;;;;;;;;;;;20.00;35.40;;;;;;484070;246;1104;-68
2020/12/08 03:30:02;;;;;;;;;;;20.00;35.40;;;;;;484058;246;1163;-68
2020/12/08 03:32:03;;;;;;;;;;;20.00;35.50;;;;;;484065;246;2200;-68
2020/12/08 03:34:05;;;;;;;;;;;19.90;35.40;;;;;;484109;246;1117;-68
2020/12/08 03:36:06;;;;;;;;;;;19.90;35.60;;;;;;484086;246;1148;-68
2020/12/08 03:38:07;;;;;;;;;;;19.90;35.50;;;;;;484055;246;1110;-68
2020/12/08 03:40:09;;;;;;;;;;;19.90;35.50;;;;;;484137;246;1194;-68
2020/12/08 03:42:10;;;;;;;;;;;20.00;35.50;;;;;;484054;246;1076;-68
2020/12/08 03:44:11;;;;;;;;;;;19.90;35.60;;;;;;484069;246;1199;-68
2020/12/08 03:46:13;;;;;;;;;;;19.90;35.50;;;;;;484075;246;1128;-68
2020/12/08 03:48:14;;;;;;;;;;;19.90;35.50;;;;;;484080;246;1081;-68
2020/12/08 03:50:15;;;;;;;;;;;19.90;35.50;;;;;;484077;246;1236;-69
2020/12/08 03:52:16;;;;;;;;;;;19.90;35.60;;;;;;484123;246;2199;-68
2020/12/08 03:54:18;;;;;;;;;;;19.90;35.50;;;;;;484184;246;1082;-68
2020/12/08 03:56:19;;;;;;;;;;;19.90;35.60;;;;;;484119;246;1166;-68
2020/12/08 03:58:21;;;;;;;;;;;20.00;35.50;;;;;;484007;242;1118;-68
2020/12/08 04:00:22;;;;;;;;;;;19.90;35.40;;;;;;484094;246;1171;-68
2020/12/08 04:02:23;;;;;;;;;;;19.90;35.60;;;;;;484156;246;1440;-68
2020/12/08 04:04:24;;;;;;;;;;;19.90;35.60;;;;;;484148;246;1141;-68
2020/12/08 04:06:26;;;;;;;;;;;19.90;35.60;;;;;;484091;246;1186;-68
2020/12/08 04:08:27;;;;;;;;;;;19.90;35.60;;;;;;484099;246;1122;-69
2020/12/08 04:10:28;;;;;;;;;;;19.90;35.30;;;;;;484100;246;986;-69
2020/12/08 04:12:30;;;;;;;;;;;19.90;35.50;;;;;;484082;246;2191;-68
2020/12/08 04:14:31;;;;;;;;;;;20.00;35.60;;;;;;484138;246;977;-69
2020/12/08 04:16:32;;;;;;;;;;;19.90;35.50;;;;;;484105;243;1305;-68
2020/12/08 04:18:33;;;;;;;;;;;19.90;35.50;;;;;;484100;246;1084;-68
2020/12/08 04:20:35;;;;;;;;;;;19.80;35.50;;;;;;484032;246;1106;-68
2020/12/08 04:22:36;;;;;;;;;;;19.90;35.60;;;;;;484058;246;1143;-68
2020/12/08 04:24:37;;;;;;;;;;;19.90;35.50;;;;;;484051;246;966;-68
2020/12/08 04:26:38;;;;;;;;;;;19.90;35.50;;;;;;484026;246;1227;-68
2020/12/08 04:28:40;;;;;;;;;;;19.90;35.50;;;;;;483992;246;1052;-68
2020/12/08 04:30:41;;;;;;;;;;;19.90;35.50;;;;;;483987;246;1118;-68
2020/12/08 04:32:42;;;;;;;;;;;19.90;35.50;;;;;;484023;246;2196;-68
2020/12/08 04:34:44;;;;;;;;;;;19.90;35.50;;;;;;484069;246;1207;-68
2020/12/08 04:36:45;;;;;;;;;;;19.80;35.50;;;;;;484034;246;1182;-68
2020/12/08 04:38:46;;;;;;;;;;;19.90;35.40;;;;;;484085;246;2397;-68
2020/12/08 04:40:48;;;;;;;;;;;19.90;35.50;;;;;;484049;246;1160;-68
2020/12/08 04:42:49;;;;;;;;;;;19.90;35.40;;;;;;484025;246;1120;-68
2020/12/08 04:44:51;;;;;;;;;;;19.90;35.30;;;;;;484027;246;1186;-68
2020/12/08 04:46:52;;;;;;;;;;;19.80;35.40;;;;;;484035;246;1155;-68
2020/12/08 04:48:53;;;;;;;;;;;19.80;35.40;;;;;;484130;246;980;-68
2020/12/08 04:50:54;;;;;;;;;;;19.80;35.40;;;;;;484114;246;1100;-68
2020/12/08 04:52:56;;;;;;;;;;;19.80;35.50;;;;;;484088;246;2188;-68
2020/12/08 04:54:57;;;;;;;;;;;19.80;35.40;;;;;;484122;246;1217;-68
2020/12/08 04:56:58;;;;;;;;;;;19.80;35.40;;;;;;483996;246;1134;-68
2020/12/08 04:58:59;;;;;;;;;;;19.80;35.50;;;;;;484044;246;1064;-68
2020/12/08 05:01:01;;;;;;;;;;;19.80;35.40;;;;;;484027;242;1225;-69
2020/12/08 05:03:03;;;;;;;;;;;19.90;35.50;;;;;;484144;246;1179;-68
2020/12/08 05:05:04;;;;;;;;;;;19.90;35.50;;;;;;484061;246;2122;-68
2020/12/08 05:07:05;;;;;;;;;;;19.80;35.40;;;;;;484060;246;1103;-68
2020/12/08 05:09:06;;;;;;;;;;;19.80;35.40;;;;;;484076;246;982;-68
2020/12/08 05:11:08;;;;;;;;;;;19.80;35.50;;;;;;484043;246;1148;-68
2020/12/08 05:13:09;;;;;;;;;;;19.80;35.60;;;;;;483924;246;2195;-68
2020/12/08 05:15:10;;;;;;;;;;;19.70;35.60;;;;;;483968;246;1018;-68
2020/12/08 05:17:12;;;;;;;;;;;19.80;35.60;;;;;;484017;246;1119;-68
2020/12/08 05:19:13;;;;;;;;;;;19.80;35.50;;;;;;484008;246;1121;-68
2020/12/08 05:21:14;;;;;;;;;;;19.80;34.90;;;;;;483986;246;1001;-68
2020/12/08 05:23:15;;;;;;;;;;;19.80;35.80;;;;;;483994;246;1103;-68
2020/12/08 05:25:17;;;;;;;;;;;19.80;35.70;;;;;;483965;246;1078;-68
2020/12/08 05:27:18;;;;;;;;;;;19.80;35.70;;;;;;484039;246;1071;-68
2020/12/08 05:29:19;;;;;;;;;;;19.70;35.60;;;;;;484049;246;1204;-68
2020/12/08 05:31:21;;;;;;;;;;;19.70;35.60;;;;;;483934;246;1375;-68
2020/12/08 05:33:22;;;;;;;;;;;19.70;35.50;;;;;;484015;246;2192;-68
2020/12/08 05:35:23;;;;;;;;;;;19.70;35.50;;;;;;483901;246;1068;-68
2020/12/08 05:37:24;;;;;;;;;;;19.70;35.50;;;;;;483749;246;1136;-68
2020/12/08 05:39:26;;;;;;;;;;;19.70;35.50;;;;;;483733;246;1154;-68
2020/12/08 05:41:27;;;;;;;;;;;19.70;35.40;;;;;;483775;246;1238;-68
2020/12/08 05:43:28;;;;;;;;;;;19.80;35.40;;;;;;483857;246;1109;-68
2020/12/08 05:45:30;;;;;;;;;;;19.80;35.40;;;;;;483856;246;1315;-68
2020/12/08 05:47:31;;;;;;;;;;;19.80;35.40;;;;;;483764;246;1185;-68
2020/12/08 05:49:32;;;;;;;;;;;19.80;35.30;;;;;;483823;246;1038;-68
2020/12/08 05:51:33;;;;;;;;;;;19.70;34.70;;;;;;483796;246;1492;-68
2020/12/08 05:53:35;;;;;;;;;;;19.70;35.30;;;;;;483888;246;2184;-68
2020/12/08 05:55:36;;;;;;;;;;;19.70;35.60;;;;;;483873;246;1018;-67
2020/12/08 05:57:37;;;;;;;;;;;19.70;35.50;;;;;;483792;246;1107;-68
2020/12/08 05:59:38;;;;;;;;;;;19.70;35.40;;;;;;483855;246;1100;-68
2020/12/08 06:01:40;;;;;;;;;;;19.70;35.40;;;;;;483714;246;1211;-68
2020/12/08 06:03:41;;;;;;;;;;;19.70;35.30;;;;;;483789;246;1157;-68
2020/12/08 06:05:42;;;;;;;;;;;19.60;35.30;;;;;;483664;246;1235;-68
2020/12/08 06:07:44;;;;;;;;;;;19.60;35.40;;;;;;483675;246;1083;-68
2020/12/08 06:09:45;;;;;;;;;;;19.70;35.40;;;;;;483690;246;1280;-68
2020/12/08 06:11:46;;;;;;;;;;;19.70;35.30;;;;;;483681;246;1063;-68
2020/12/08 06:13:47;;;;;;;;;;;19.70;35.20;;;;;;483677;246;2271;-68
2020/12/08 06:15:49;;;;;;;;;;;19.70;35.20;;;;;;483664;246;1277;-68
2020/12/08 06:17:50;;;;;;;;;;;19.70;35.20;;;;;;483793;246;1172;-68
2020/12/08 06:19:51;;;;;;;;;;;19.70;35.20;;;;;;483806;246;1164;-68
2020/12/08 06:21:53;;;;;;;;;;;19.70;35.20;;;;;;483686;246;1068;-68
2020/12/08 06:23:54;;;;;;;;;;;19.70;35.20;;;;;;483591;246;1105;-68
2020/12/08 06:25:55;;;;;;;;;;;19.70;35.20;;;;;;483605;246;1251;-69
2020/12/08 06:27:57;;;;;;;;;;;19.70;35.10;;;;;;483606;246;1208;-68
2020/12/08 06:29:58;;;;;;;;;;;19.70;35.20;;;;;;483718;246;1243;-68
2020/12/08 06:31:59;;;;;;;;;;;19.60;35.20;;;;;;483517;246;1112;-68
2020/12/08 06:34:00;;;;;;;;;;;19.60;35.20;;;;;;483516;246;2208;-68
2020/12/08 06:36:02;;;;;;;;;;;19.70;35.20;;;;;;483547;246;1231;-68
2020/12/08 06:38:03;;;;;;;;;;;19.70;35.20;;;;;;483536;246;1310;-68
2020/12/08 06:40:04;;;;;;;;;;;19.70;35.10;;;;;;483258;246;1767;-68
2020/12/08 06:42:06;;;;;;;;;;;19.70;35.10;;;;;;483565;242;1279;-68
2020/12/08 06:44:07;;;;;;;;;;;19.60;35.10;;;;;;483383;246;1191;-68
2020/12/08 06:46:08;;;;;;;;;;;19.70;35.20;;;;;;483518;246;1255;-68
2020/12/08 06:48:09;;;;;;;;;;;19.70;35.10;;;;;;483461;246;1178;-68
2020/12/08 06:50:11;;;;;;;;;;;19.60;35.20;;;;;;483533;246;1120;-68
2020/12/08 06:52:12;;;;;;;;;;;19.60;35.30;;;;;;483568;246;1180;-68
2020/12/08 06:54:13;;;;;;;;;;;19.70;35.20;;;;;;483581;246;2196;-68
2020/12/08 06:56:14;;;;;;;;;;;19.70;35.20;;;;;;483705;246;1330;-68
2020/12/08 06:58:17;;;;;;;;;;;19.70;35.40;;;;;;483726;246;1295;-68
2020/12/08 07:00:17;;;;;;;;;;;19.60;35.40;;;;;;483426;246;1956;-68
2020/12/08 07:02:18;;;;;;;;;;;19.60;35.00;;;;;;483555;246;1172;-68
2020/12/08 07:04:20;;;;;;;;;;;19.60;35.50;;;;;;483495;246;1220;-68
2020/12/08 07:06:21;;;;;;;;;;;19.60;35.70;;;;;;483472;246;1136;-68
2020/12/08 07:08:24;;;;;;;;;;;19.60;35.70;;;;;;483360;246;1148;-68
2020/12/08 07:10:23;;;;;;;;;;;19.60;35.50;;;;;;483254;246;2235;-68
2020/12/08 07:12:25;;;;;;;;;;;19.60;35.50;;;;;;483490;246;1113;-68
2020/12/08 07:14:26;;;;;;;;;;;19.60;35.60;;;;;;483466;246;2175;-68
2020/12/08 07:16:27;;;;;;;;;;;19.70;35.60;;;;;;483517;246;1041;-68
2020/12/08 07:18:28;;;;;;;;;;;19.60;35.40;;;;;;483480;246;1193;-68
2020/12/08 07:20:30;;;;;;;;;;;19.70;35.40;;;;;;483484;246;1388;-68
2020/12/08 07:22:31;;;;;;;;;;;19.60;35.40;;;;;;483412;246;1061;-68
2020/12/08 07:24:32;;;;;;;;;;;19.60;35.40;;;;;;483403;246;1099;-68
2020/12/08 07:26:34;;;;;;;;;;;19.60;35.40;;;;;;483283;246;1047;-68
2020/12/08 07:28:35;;;;;;;;;;;19.60;35.40;;;;;;483366;246;1004;-68
2020/12/08 07:30:36;;;;;;;;;;;19.60;35.50;;;;;;483237;246;1120;-68
2020/12/08 07:32:37;;;;;;;;;;;19.70;35.30;;;;;;483304;246;1057;-68
2020/12/08 07:34:39;;;;;;;;;;;19.70;35.30;;;;;;483360;246;2191;-68
2020/12/08 07:36:40;;;;;;;;;;;19.60;35.30;;;;;;483477;246;1230;-68
2020/12/08 07:38:41;;;;;;;;;;;19.70;35.30;;;;;;483349;246;1102;-68
2020/12/08 07:40:43;;;;;;;;;;;19.70;35.30;;;;;;483435;246;1120;-68
2020/12/08 07:42:44;;;;;;;;;;;19.70;35.20;;;;;;483566;246;1307;-68
2020/12/08 07:44:45;;;;;;;;;;;19.70;35.20;;;;;;483283;246;1065;-68
2020/12/08 07:46:46;;;;;;;;;;;19.80;35.20;;;;;;483397;246;1086;-68
2020/12/08 07:48:48;;;;;;;;;;;19.70;35.20;;;;;;483385;246;1145;-68
2020/12/08 07:50:49;;;;;;;;;;;19.70;35.30;;;;;;483488;246;1239;-68
2020/12/08 07:52:51;;;;;;;;;;;19.60;35.20;;;;;;483228;246;1032;-68
2020/12/08 07:54:52;;;;;;;;;;;19.60;35.20;;;;;;483198;246;2192;-69
2020/12/08 07:56:53;;;;;;;;;;;19.60;35.30;;;;;;483276;246;1463;-68
2020/12/08 07:58:54;;;;;;;;;;;19.60;35.30;;;;;;483224;242;1176;-68
2020/12/08 08:00:56;;;;;;;;;;;19.60;35.40;;;;;;483152;246;1422;-68
2020/12/08 08:02:57;;;;;;;;;;;19.60;35.20;;;;;;483208;246;1187;-68
2020/12/08 08:04:59;;;;;;;;;;;19.70;34.80;;;;;;483324;246;1286;-68
2020/12/08 08:07:00;;;;;;;;;;;19.60;35.10;;;;;;483450;246;1155;-68
2020/12/08 08:09:06;;;;;;;;;;;19.70;35.30;;;;;;483688;246;1210;-68
2020/12/08 08:11:03;;;;;;;;;;;19.70;35.30;;;;;;483160;246;2180;-68
2020/12/08 08:13:05;;;;;;;;;;;19.60;35.20;;;;;;483253;246;1155;-68
2020/12/08 08:15:06;;;;;;;;;;;19.60;35.30;;;;;;483028;246;2180;-68
2020/12/08 08:17:07;;;;;;;;;;;19.70;35.20;;;;;;483394;246;1164;-68
2020/12/08 08:19:09;;;;;;;;;;;19.60;35.20;;;;;;483398;246;1189;-68
2020/12/08 08:21:10;;;;;;;;;;;19.70;35.20;;;;;;483375;246;1116;-68
2020/12/08 08:23:11;;;;;;;;;;;19.70;35.20;;;;;;483236;246;1066;-68
2020/12/08 08:25:12;;;;;;;;;;;19.70;35.20;;;;;;483198;242;1289;-68
2020/12/08 08:27:14;;;;;;;;;;;19.70;35.20;;;;;;483323;246;1052;-68
2020/12/08 08:29:15;;;;;;;;;;;19.70;35.20;;;;;;483370;246;1060;-69
2020/12/08 08:31:16;;;;;;;;;;;19.70;35.20;;;;;;483404;246;1132;-68
2020/12/08 08:33:18;;;;;;;;;;;19.70;35.30;;;;;;483293;246;1040;-68
2020/12/08 08:35:20;;;;;;;;;;;19.70;35.30;;;;;;483319;246;2187;-68
2020/12/08 08:37:21;;;;;;;;;;;19.70;35.30;;;;;;483257;246;2108;-68
2020/12/08 08:39:22;;;;;;;;;;;19.80;35.30;;;;;;483152;246;1076;-68
2020/12/08 08:41:23;;;;;;;;;;;19.80;35.30;;;;;;483220;246;1031;-68
2020/12/08 08:43:25;;;;;;;;;;;19.80;35.30;;;;;;483290;246;1191;-68
2020/12/08 08:45:26;;;;;;;;;;;19.80;35.30;;;;;;483287;246;1046;-68
2020/12/08 08:47:27;;;;;;;;;;;19.80;35.20;;;;;;483400;246;1194;-68
2020/12/08 08:49:29;;;;;;;;;;;19.80;35.20;;;;;;483251;246;1171;-68
2020/12/08 08:51:30;;;;;;;;;;;19.90;35.10;;;;;;483103;246;1078;-68
2020/12/08 08:53:31;;;;;;;;;;;19.90;35.00;;;;;;483101;246;2187;-68
2020/12/08 08:55:33;;;;;;;;;;;19.90;35.10;;;;;;483214;246;1061;-68
2020/12/08 08:57:34;;;;;;;;;;;20.00;35.20;;;;;;483430;246;1283;-68
2020/12/08 08:59:35;;;;;;;;;;;20.00;35.20;;;;;;483378;246;1058;-68
2020/12/08 09:01:37;;;;;;;;;;;19.90;35.10;;;;;;483306;246;1041;-68
2020/12/08 09:03:39;;;;;;;;;;;19.90;35.30;;;;;;483169;246;1135;-68
2020/12/08 09:05:39;;;;;;;;;;;20.00;35.20;;;;;;483108;246;2123;-68
2020/12/08 09:07:41;;;;;;;;;;;19.90;35.30;;;;;;483308;246;1206;-68
2020/12/08 09:09:42;;;;;;;;;;;19.90;35.20;;;;;;483303;246;1019;-68
2020/12/08 09:11:43;;;;;;;;;;;19.90;34.90;;;;;;483663;246;1144;-68
2020/12/08 09:13:45;;;;;;;;;;;19.90;35.50;;;;;;484104;246;2179;-68
2020/12/08 09:15:46;;;;;;;;;;;20.00;35.50;;;;;;483336;246;1059;-68
2020/12/08 09:17:47;;;;;;;;;;;19.90;35.40;;;;;;483415;246;1337;-68
2020/12/08 09:19:48;;;;;;;;;;;19.90;35.40;;;;;;483283;246;1316;-68
2020/12/08 09:21:50;;;;;;;;;;;20.00;35.30;;;;;;483490;243;1111;-68
2020/12/08 09:23:51;;;;;;;;;;;20.00;35.30;;;;;;483290;246;1160;-68
2020/12/08 09:25:54;;;;;;;;;;;20.00;35.20;;;;;;483371;246;1093;-68
2020/12/08 09:27:55;;;;;;;;;;;20.00;35.10;;;;;;483198;246;1127;-68
2020/12/08 09:29:56;;;;;;;;;;;20.00;35.20;;;;;;483296;246;1234;-68
2020/12/08 09:31:57;;;;;;;;;;;20.00;35.20;;;;;;483258;246;1090;-68
2020/12/08 09:33:58;;;;;;;;;;;20.00;35.10;;;;;;483192;246;2181;-68
2020/12/08 09:36:00;;;;;;;;;;;20.00;35.20;;;;;;483106;242;1179;-68
2020/12/08 09:38:03;;;;;;;;;;;20.00;35.20;;;;;;483052;246;1071;-68
2020/12/08 09:40:04;;;;;;;;;;;20.00;35.20;;;;;;483038;246;1126;-68
2020/12/08 09:42:06;;;;;;;;;;;19.90;35.20;;;;;;483102;246;1105;-68
2020/12/08 09:44:09;;;;;;;;;;;20.00;35.30;;;;;;483170;246;1175;-68
2020/12/08 09:46:08;;;;;;;;;;;20.00;35.30;;;;;;483084;246;2319;-68
2020/12/08 09:48:10;;;;;;;;;;;20.00;35.30;;;;;;483181;246;1031;-68
2020/12/08 09:50:12;;;;;;;;;;;19.90;35.20;;;;;;483307;246;1101;-68
2020/12/08 09:52:13;;;;;;;;;;;20.00;35.20;;;;;;483179;246;1170;-68
2020/12/08 09:54:14;;;;;;;;;;;20.00;35.20;;;;;;483175;246;2192;-69
2020/12/08 09:56:15;;;;;;;;;;;20.00;35.20;;;;;;483249;246;1055;-68
2020/12/08 09:58:17;;;;;;;;;;;20.00;35.30;;;;;;483377;246;1018;-68
2020/12/08 10:00:18;;;;;;;;;;;20.10;35.20;;;;;;483255;246;1174;-68
2020/12/08 10:02:19;;;;;;;;;;;20.00;35.00;;;;;;483162;246;1129;-68
2020/12/08 10:04:20;;;;;;;;;;;20.00;35.10;;;;;;483114;246;1049;-68
2020/12/08 10:06:22;;;;;;;;;;;20.00;35.10;;;;;;483065;246;1171;-68
2020/12/08 10:08:23;;;;;;;;;;;20.00;35.00;;;;;;482979;246;2210;-68
2020/12/08 10:10:24;;;;;;;;;;;20.00;35.10;;;;;;483339;246;1073;-68
2020/12/08 10:12:26;;;;;;;;;;;19.90;35.10;;;;;;483245;246;1302;-69
2020/12/08 10:14:27;;;;;;;;;;;19.90;35.10;;;;;;483363;246;2196;-68
2020/12/08 10:16:28;;;;;;;;;;;20.00;35.00;;;;;;483388;246;1236;-68
2020/12/08 10:18:30;;;;;;;;;;;20.00;34.80;;;;;;483561;246;1110;-68
2020/12/08 10:20:31;;;;;;;;;;;20.00;34.70;;;;;;483219;246;1085;-68
2020/12/08 10:22:32;;;;;;;;;;;20.00;34.40;;;;;;483375;246;1248;-68
2020/12/08 10:24:34;;;;;;;;;;;19.90;34.50;;;;;;483144;246;1163;-68
2020/12/08 10:26:35;;;;;;;;;;;20.00;34.80;;;;;;483212;246;1210;-68
2020/12/08 10:28:36;;;;;;;;;;;19.90;34.70;;;;;;483407;246;1059;-68
2020/12/08 10:30:37;;;;;;;;;;;20.00;34.90;;;;;;483400;246;1125;-68
2020/12/08 10:32:39;;;;;;;;;;;20.00;34.70;;;;;;483283;246;1242;-68
2020/12/08 10:34:41;;;;;;;;;;;20.00;34.70;;;;;;483234;246;2196;-69
2020/12/08 10:36:41;;;;;;;;;;;20.10;34.60;;;;;;483423;246;1978;-68
2020/12/08 10:38:43;;;;;;;;;;;20.10;34.50;;;;;;483419;246;1054;-68
2020/12/08 10:40:44;;;;;;;;;;;20.10;34.60;;;;;;483352;243;1175;-68
2020/12/08 10:42:45;;;;;;;;;;;20.10;34.60;;;;;;483293;246;1131;-68
2020/12/08 10:44:47;;;;;;;;;;;20.10;34.50;;;;;;483297;246;1188;-68
2020/12/08 10:46:48;;;;;;;;;;;20.10;34.50;;;;;;483315;246;1145;-68
2020/12/08 10:48:50;;;;;;;;;;;20.10;34.60;;;;;;483340;246;1067;-68
2020/12/08 10:50:51;;;;;;;;;;;20.10;34.60;;;;;;483328;246;1112;-68
2020/12/08 10:52:53;;;;;;;;;;;20.10;34.50;;;;;;483409;246;1165;-68
2020/12/08 10:54:57;;;;;;;;;;;20.10;34.40;;;;;;483238;246;2212;-68
2020/12/08 10:56:58;;;;;;;;;;;20.10;34.50;;;;;;483099;246;994;-68
2020/12/08 10:58:59;;;;;;;;;;;20.10;34.50;;;;;;482853;246;1360;-68
2020/12/08 11:01:01;;;;;;;;;;;20.10;34.60;;;;;;483174;246;1118;-68
2020/12/08 11:03:02;;;;;;;;;;;20.10;34.50;;;;;;483431;246;1072;-68
2020/12/08 11:05:07;;;;;;;;;;;20.10;34.50;;;;;;483412;246;1233;-68
2020/12/08 11:07:05;;;;;;;;;;;20.10;34.60;;;;;;483133;246;2191;-68
2020/12/08 11:09:06;;;;;;;;;;;20.10;34.50;;;;;;483041;246;1022;-68
2020/12/08 11:11:08;;;;;;;;;;;20.20;34.60;;;;;;483100;246;1261;-68
2020/12/08 11:13:09;;;;;;;;;;;20.10;34.50;;;;;;483442;246;1111;-69
2020/12/08 11:15:10;;;;;;;;;;;20.20;34.40;;;;;;483444;246;2200;-68
2020/12/08 11:17:13;;;;;;;;;;;20.30;34.50;;;;;;483439;246;1301;-68
2020/12/08 11:19:13;;;;;;;;;;;20.30;34.40;;;;;;483187;246;1966;-68
2020/12/08 11:21:16;;;;;;;;;;;20.30;34.30;;;;;;483377;246;1128;-68
2020/12/08 11:23:17;;;;;;;;;;;20.20;34.40;;;;;;483366;246;1322;-68
2020/12/08 11:25:18;;;;;;;;;;;20.30;34.50;;;;;;483353;246;1266;-68
2020/12/08 11:27:20;;;;;;;;;;;20.30;34.40;;;;;;483272;246;1188;-68
2020/12/08 11:29:21;;;;;;;;;;;20.30;34.30;;;;;;483449;246;1307;-68
2020/12/08 11:31:22;;;;;;;;;;;20.40;34.40;;;;;;483346;243;1195;-68
2020/12/08 11:33:24;;;;;;;;;;;20.30;34.40;;;;;;483240;246;1038;-68
2020/12/08 11:35:25;;;;;;;;;;;20.30;34.50;;;;;;483256;246;2184;-68
2020/12/08 11:37:26;;;;;;;;;;;20.20;34.50;;;;;;483290;246;1341;-68
2020/12/08 11:39:28;;;;;;;;;;;20.30;34.60;;;;;;483296;246;1143;-68
2020/12/08 11:41:29;;;;;;;;;;;20.30;34.70;;;;;;483352;246;1174;-68
2020/12/08 11:43:31;;;;;;;;;;;20.30;34.70;;;;;;483145;246;1185;-68
2020/12/08 11:45:32;;;;;;;;;;;20.20;34.70;;;;;;483244;246;1044;-68
2020/12/08 11:47:33;;;;;;;;;;;20.30;34.70;;;;;;483307;246;1161;-68
2020/12/08 11:49:36;;;;;;;;;;;20.30;34.70;;;;;;483451;246;1164;-68
2020/12/08 11:51:37;;;;;;;;;;;20.20;34.40;;;;;;483427;246;2073;-68
2020/12/08 11:53:38;;;;;;;;;;;20.30;34.50;;;;;;483363;246;1270;-68
2020/12/08 11:55:40;;;;;;;;;;;20.30;34.90;;;;;;483274;246;2196;-68
2020/12/08 11:57:41;;;;;;;;;;;20.40;34.90;;;;;;483258;246;1048;-68